Time;durP1;ratioP1;P1;durP2;ratioP2;P2;SDS_P1;SDS_P2;PMS_P1;PMS_P2;Temp;Humidity;BMP_temperature;BMP_pressure;BME280_temperature;BME280_humidity;BME280_pressure;Samples;Min_cycle;Max_cycle;Signal;HPM_P1;HPM_P2
2023/01/27 00:00:12;;;;;;;;;;;;;;;;;;5113203;28;19907;-56
2023/01/27 00:02:38;;;;;;;;;;;;;;;;;;5113166;28;20001;-52
2023/01/27 00:05:04;;;;;;;;;;;;;;;;;;5119102;27;19911;-55
2023/01/27 00:07:30;;;;;;;;;;;;;;;;;;5133599;27;20382;-52
2023/01/27 00:09:56;;;;;;;;;;;;;;;;;;5133657;27;19922;-53
2023/01/27 00:15:06;;;;;;;;;;;;;;;;;;5119337;27;20334;-54
2023/01/27 00:17:32;;;;;;;;;;;;;;;;;;5112831;27;19915;-52
2023/01/27 00:19:58;;;;;;;;;;;;;;;;;;5113974;27;20018;-56
2023/01/27 00:25:08;;;;;;;;;;;;;;;;;;5116622;27;19919;-56
2023/01/27 00:27:34;;;;;;;;;;;;;;;;;;5112638;28;19912;-56
2023/01/27 00:30:03;;;;;;;;;;;;;;;;;;5127811;27;19912;-56
2023/01/27 00:35:15;;;;;;;;;;;;;;;;;;5125778;27;19956;-55
2023/01/27 00:37:41;;;;;;;;;;;;;;;;;;5108996;22;19936;-50
2023/01/27 00:40:07;;;;;;;;;;;;;;;;;;5061484;28;19913;-50
2023/01/27 00:42:32;;;;;;;;;;;;;;;;;;5073684;28;19912;-50
2023/01/27 00:47:43;;;;;;;;;;;;;;;;;;5073896;28;19927;-51
2023/01/27 00:50:09;;;;;;;;;;;;;;;;;;5057264;28;19913;-50
2023/01/27 00:52:35;;;;;;;;;;;;;;;;;;5053509;28;20361;-51
2023/01/27 00:55:01;;;;;;;;;;;;;;;;;;5053689;28;19919;-50
2023/01/27 00:57:27;;;;;;;;;;;;;;;;;;5057670;28;19924;-50
2023/01/27 00:59:53;;;;;;;;;;;;;;;;;;5067986;28;19917;-50
2023/01/27 01:02:18;;;;;;;;;;;;;;;;;;5059224;28;20003;-50
2023/01/27 01:04:44;;;;;;;;;;;;;;;;;;5054542;28;19913;-50
2023/01/27 01:07:10;;;;;;;;;;;;;;;;;;5054857;28;19947;-50
2023/01/27 01:09:36;;;;;;;;;;;;;;;;;;5055410;28;19975;-50
2023/01/27 01:12:02;;;;;;;;;;;;;;;;;;5055291;28;19924;-50
2023/01/27 01:14:28;;;;;;;;;;;;;;;;;;5071238;28;19920;-51
2023/01/27 01:16:55;;;;;;;;;;;;;;;;;;5068963;28;19912;-50
2023/01/27 01:19:21;;;;;;;;;;;;;;;;;;5053123;28;19919;-48
2023/01/27 01:21:47;;;;;;;;;;;;;;;;;;5053302;28;20359;-48
2023/01/27 01:24:12;;;;;;;;;;;;;;;;;;5054334;28;19963;-50
2023/01/27 01:26:38;;;;;;;;;;;;;;;;;;5054516;28;19936;-50
2023/01/27 01:29:04;;;;;;;;;;;;;;;;;;5057453;28;19939;-50
2023/01/27 01:31:30;;;;;;;;;;;;;;;;;;5054326;28;19912;-50
2023/01/27 01:33:56;;;;;;;;;;;;;;;;;;5053568;28;19912;-51
2023/01/27 01:36:22;;;;;;;;;;;;;;;;;;5057673;28;20003;-49
2023/01/27 01:38:48;;;;;;;;;;;;;;;;;;5057998;28;19968;-50
2023/01/27 01:41:14;;;;;;;;;;;;;;;;;;5072076;28;20360;-50
2023/01/27 01:43:40;;;;;;;;;;;;;;;;;;5076923;28;20353;-50
2023/01/27 01:46:06;;;;;;;;;;;;;;;;;;5073475;28;19912;-50
2023/01/27 01:48:32;;;;;;;;;;;;;;;;;;5076443;28;19927;-50
2023/01/27 01:50:58;;;;;;;;;;;;;;;;;;5071523;28;19912;-51
2023/01/27 01:53:28;;;;;;;;;;;;;;;;;;5057576;28;19912;-50
2023/01/27 01:55:54;;;;;;;;;;;;;;;;;;5057112;28;19924;-50
2023/01/27 01:58:19;;;;;;;;;;;;;;;;;;5074868;28;19916;-49
2023/01/27 02:00:46;;;;;;;;;;;;;;;;;;5075719;28;20262;-53
2023/01/27 02:03:12;;;;;;;;;;;;;;;;;;5060504;28;19909;-49
2023/01/27 02:05:38;;;;;;;;;;;;;;;;;;5063927;28;19958;-50
2023/01/27 02:08:03;;;;;;;;;;;;;;;;;;5075302;28;19916;-50
2023/01/27 02:10:29;;;;;;;;;;;;;;;;;;5069286;28;19938;-50
2023/01/27 02:12:55;;;;;;;;;;;;;;;;;;5074685;28;19995;-48
2023/01/27 02:15:21;;;;;;;;;;;;;;;;;;5075815;28;20392;-50
2023/01/27 02:17:47;;;;;;;;;;;;;;;;;;5061350;28;19920;-51
2023/01/27 02:20:13;;;;;;;;;;;;;;;;;;5066280;28;19916;-50
2023/01/27 02:22:39;;;;;;;;;;;;;;;;;;5076403;28;19939;-50
2023/01/27 02:25:05;;;;;;;;;;;;;;;;;;5074421;28;19912;-50
2023/01/27 02:27:31;;;;;;;;;;;;;;;;;;5076028;28;19921;-51
2023/01/27 02:29:57;;;;;;;;;;;;;;;;;;5076112;28;19935;-53
2023/01/27 02:32:23;;;;;;;;;;;;;;;;;;5063627;28;20007;-51
2023/01/27 02:34:48;;;;;;;;;;;;;;;;;;5058739;28;20003;-51
2023/01/27 02:37:15;;;;;;;;;;;;;;;;;;5055826;28;19917;-49
2023/01/27 02:39:41;;;;;;;;;;;;;;;;;;5057082;28;20319;-51
2023/01/27 02:42:07;;;;;;;;;;;;;;;;;;5067160;28;19912;-52
2023/01/27 02:44:33;;;;;;;;;;;;;;;;;;5055887;28;20058;-50
2023/01/27 02:46:59;;;;;;;;;;;;;;;;;;5055537;28;19909;-51
2023/01/27 02:49:25;;;;;;;;;;;;;;;;;;5055744;28;19971;-50
2023/01/27 02:51:51;;;;;;;;;;;;;;;;;;5055868;28;20369;-50
2023/01/27 02:54:17;;;;;;;;;;;;;;;;;;5055406;28;19913;-50
2023/01/27 02:56:43;;;;;;;;;;;;;;;;;;5054202;28;19909;-50
2023/01/27 02:59:08;;;;;;;;;;;;;;;;;;5054339;28;19916;-49
2023/01/27 03:01:34;;;;;;;;;;;;;;;;;;5070891;28;19908;-51
2023/01/27 03:04:01;;;;;;;;;;;;;;;;;;5071023;28;19908;-51
2023/01/27 03:06:27;;;;;;;;;;;;;;;;;;5055540;28;20045;-50
2023/01/27 03:08:53;;;;;;;;;;;;;;;;;;5055090;28;20277;-50
2023/01/27 03:12:18;;;;;;;;;;;;;;;;;;5055935;28;19912;-48
2023/01/27 03:14:04;;;;;;;;;;;;;;;;;;5055717;28;20000;-50
2023/01/27 03:19:14;;;;;;;;;;;;;;;;;;5055165;28;19942;-51
2023/01/27 03:21:40;;;;;;;;;;;;;;;;;;5056726;28;20003;-50
2023/01/27 03:24:06;;;;;;;;;;;;;;;;;;5055968;28;19944;-50
2023/01/27 03:26:32;;;;;;;;;;;;;;;;;;5057131;28;20425;-52
2023/01/27 03:31:43;;;;;;;;;;;;;;;;;;5058805;28;19919;-49
2023/01/27 03:34:09;;;;;;;;;;;;;;;;;;5073354;28;19928;-49
2023/01/27 03:47:33;;;;;;;;;;;;;;;;;;5065098;28;19924;-49
2023/01/27 03:49:59;;;;;;;;;;;;;;;;;;5057137;28;19913;-51
2023/01/27 03:52:25;;;;;;;;;;;;;;;;;;5060288;28;20404;-50
2023/01/27 03:54:51;;;;;;;;;;;;;;;;;;5061941;28;19919;-49
2023/01/27 03:57:17;;;;;;;;;;;;;;;;;;5069219;28;19960;-51
2023/01/27 03:59:43;;;;;;;;;;;;;;;;;;5053771;28;20487;-50
2023/01/27 04:07:38;;;;;;;;;;;;;;;;;;5073907;28;19919;-50
2023/01/27 04:10:04;;;;;;;;;;;;;;;;;;5074205;28;19913;-50
2023/01/27 04:12:31;;;;;;;;;;;;;;;;;;5061515;28;19927;-50
2023/01/27 04:14:57;;;;;;;;;;;;;;;;;;5054389;28;19913;-50
2023/01/27 04:17:23;;;;;;;;;;;;;;;;;;5058487;28;19924;-50
2023/01/27 04:19:48;;;;;;;;;;;;;;;;;;5060988;28;19908;-49
2023/01/27 04:22:14;;;;;;;;;;;;;;;;;;5054084;28;19909;-52
2023/01/27 04:24:40;;;;;;;;;;;;;;;;;;5054637;28;19913;-51
2023/01/27 04:27:06;;;;;;;;;;;;;;;;;;5060738;28;19917;-49
2023/01/27 04:29:33;;;;;;;;;;;;;;;;;;5069088;28;19912;-49
2023/01/27 04:31:59;;;;;;;;;;;;;;;;;;5052763;28;19909;-50
2023/01/27 04:34:25;;;;;;;;;;;;;;;;;;5059268;28;19912;-51
2023/01/27 04:36:51;;;;;;;;;;;;;;;;;;5073791;28;19912;-50
2023/01/27 04:39:17;;;;;;;;;;;;;;;;;;5072259;28;19917;-50
2023/01/27 04:41:44;;;;;;;;;;;;;;;;;;5072587;28;19920;-50
2023/01/27 04:44:10;;;;;;;;;;;;;;;;;;5070415;28;19974;-51
2023/01/27 04:46:36;;;;;;;;;;;;;;;;;;5058914;28;19919;-50
2023/01/27 04:49:02;;;;;;;;;;;;;;;;;;5064830;28;19921;-50
2023/01/27 04:51:28;;;;;;;;;;;;;;;;;;5073741;28;19914;-50
2023/01/27 04:53:54;;;;;;;;;;;;;;;;;;5055518;28;20015;-50
2023/01/27 04:56:20;;;;;;;;;;;;;;;;;;5051005;28;20362;-50
2023/01/27 04:58:46;;;;;;;;;;;;;;;;;;5050821;28;19913;-51
2023/01/27 05:01:11;;;;;;;;;;;;;;;;;;5051208;28;19909;-50
2023/01/27 05:03:37;;;;;;;;;;;;;;;;;;5051270;28;19913;-53
2023/01/27 05:06:03;;;;;;;;;;;;;;;;;;5050965;28;20335;-50
2023/01/27 05:08:29;;;;;;;;;;;;;;;;;;5051109;28;19909;-50
2023/01/27 05:10:55;;;;;;;;;;;;;;;;;;5052927;28;19909;-51
2023/01/27 05:13:21;;;;;;;;;;;;;;;;;;5055506;28;20066;-49
2023/01/27 05:15:47;;;;;;;;;;;;;;;;;;5072003;28;19913;-51
2023/01/27 05:18:13;;;;;;;;;;;;;;;;;;5072582;28;19913;-51
2023/01/27 05:20:39;;;;;;;;;;;;;;;;;;5054839;28;19909;-51
2023/01/27 05:25:50;;;;;;;;;;;;;;;;;;5055715;28;19916;-53
2023/01/27 05:28:16;;;;;;;;;;;;;;;;;;5055634;28;19996;-50
2023/01/27 05:30:42;;;;;;;;;;;;;;;;;;5055701;28;19952;-51
2023/01/27 05:33:09;;;;;;;;;;;;;;;;;;5055814;28;19939;-51
2023/01/27 05:35:35;;;;;;;;;;;;;;;;;;5055547;28;19988;-50
2023/01/27 05:38:01;;;;;;;;;;;;;;;;;;5054036;28;20003;-49
2023/01/27 05:40:27;;;;;;;;;;;;;;;;;;5055511;28;20441;-50
2023/01/27 05:42:53;;;;;;;;;;;;;;;;;;5055495;28;20001;-50
2023/01/27 05:45:19;;;;;;;;;;;;;;;;;;5055290;28;19909;-50
2023/01/27 05:47:45;;;;;;;;;;;;;;;;;;5055260;28;19963;-51
2023/01/27 05:50:11;;;;;;;;;;;;;;;;;;5055379;28;19962;-52
2023/01/27 05:52:36;;;;;;;;;;;;;;;;;;5055240;28;19909;-50
2023/01/27 05:55:02;;;;;;;;;;;;;;;;;;5055151;28;19913;-50
2023/01/27 05:57:28;;;;;;;;;;;;;;;;;;5055551;28;20323;-53
2023/01/27 05:59:54;;;;;;;;;;;;;;;;;;5055167;28;19909;-53
2023/01/27 06:02:20;;;;;;;;;;;;;;;;;;5053905;28;19909;-53
2023/01/27 06:04:46;;;;;;;;;;;;;;;;;;5054867;28;19913;-52
2023/01/27 06:07:12;;;;;;;;;;;;;;;;;;5053722;28;19909;-52
2023/01/27 06:09:38;;;;;;;;;;;;;;;;;;5055058;28;20381;-51
2023/01/27 06:12:04;;;;;;;;;;;;;;;;;;5055045;28;19913;-50
2023/01/27 06:14:30;;;;;;;;;;;;;;;;;;5054634;28;19935;-53
2023/01/27 06:16:56;;;;;;;;;;;;;;;;;;5054653;28;19908;-49
2023/01/27 06:19:22;;;;;;;;;;;;;;;;;;5054779;28;19919;-51
2023/01/27 06:21:48;;;;;;;;;;;;;;;;;;5053759;28;19999;-51
2023/01/27 06:24:14;;;;;;;;;;;;;;;;;;5054724;28;19912;-53
2023/01/27 06:26:40;;;;;;;;;;;;;;;;;;5054394;28;19909;-53
2023/01/27 06:29:06;;;;;;;;;;;;;;;;;;5054663;28;20273;-52
2023/01/27 06:31:32;;;;;;;;;;;;;;;;;;5054512;28;19916;-53
2023/01/27 06:33:58;;;;;;;;;;;;;;;;;;5054586;28;19909;-51
2023/01/27 06:36:24;;;;;;;;;;;;;;;;;;5054346;28;20397;-50
2023/01/27 06:38:50;;;;;;;;;;;;;;;;;;5054950;28;19923;-50
2023/01/27 06:41:16;;;;;;;;;;;;;;;;;;5054232;28;19909;-50
2023/01/27 06:43:42;;;;;;;;;;;;;;;;;;5054283;28;19908;-52
2023/01/27 06:46:08;;;;;;;;;;;;;;;;;;5054064;28;19993;-51
2023/01/27 06:48:34;;;;;;;;;;;;;;;;;;5053986;28;20015;-51
2023/01/27 06:51:00;;;;;;;;;;;;;;;;;;5053964;28;19916;-51
2023/01/27 06:53:26;;;;;;;;;;;;;;;;;;5054006;28;19912;-52
2023/01/27 06:55:51;;;;;;;;;;;;;;;;;;5053863;28;20347;-54
2023/01/27 06:58:17;;;;;;;;;;;;;;;;;;5053849;28;19913;-52
2023/01/27 07:00:43;;;;;;;;;;;;;;;;;;5053927;28;19920;-50
2023/01/27 07:03:09;;;;;;;;;;;;;;;;;;5053815;28;20296;-50
2023/01/27 07:05:35;;;;;;;;;;;;;;;;;;5053564;28;19909;-51
2023/01/27 07:08:01;;;;;;;;;;;;;;;;;;5052418;28;19924;-51
2023/01/27 07:10:27;;;;;;;;;;;;;;;;;;5053662;28;19909;-53
2023/01/27 07:12:53;;;;;;;;;;;;;;;;;;5053708;28;19916;-53
2023/01/27 07:15:19;;;;;;;;;;;;;;;;;;5053426;28;19909;-53
2023/01/27 07:17:45;;;;;;;;;;;;;;;;;;5053500;28;20320;-50
2023/01/27 07:20:11;;;;;;;;;;;;;;;;;;5053533;28;19909;-51
2023/01/27 07:22:36;;;;;;;;;;;;;;;;;;5053467;28;20000;-50
2023/01/27 07:25:02;;;;;;;;;;;;;;;;;;5053324;28;20397;-50
2023/01/27 07:27:28;;;;;;;;;;;;;;;;;;5052034;28;19909;-49
2023/01/27 07:29:54;;;;;;;;;;;;;;;;;;5053390;28;19913;-50
2023/01/27 07:32:20;;;;;;;;;;;;;;;;;;5052013;28;19909;-52
2023/01/27 07:34:46;;;;;;;;;;;;;;;;;;5053071;28;20328;-50
2023/01/27 07:37:12;;;;;;;;;;;;;;;;;;5052978;28;19913;-50
2023/01/27 07:39:38;;;;;;;;;;;;;;;;;;5053048;28;19917;-50
2023/01/27 07:42:04;;;;;;;;;;;;;;;;;;5053144;28;19962;-51
2023/01/27 07:44:30;;;;;;;;;;;;;;;;;;5053104;28;19908;-52
2023/01/27 07:46:55;;;;;;;;;;;;;;;;;;5052890;28;20011;-52
2023/01/27 07:49:21;;;;;;;;;;;;;;;;;;5052919;28;20341;-52
2023/01/27 07:51:47;;;;;;;;;;;;;;;;;;5052804;28;20004;-50
2023/01/27 07:54:13;;;;;;;;;;;;;;;;;;5052829;28;20113;-49
2023/01/27 07:56:39;;;;;;;;;;;;;;;;;;5052598;28;19915;-50
2023/01/27 07:59:05;;;;;;;;;;;;;;;;;;5052712;28;19920;-50
2023/01/27 08:01:31;;;;;;;;;;;;;;;;;;5052725;28;19909;-52
2023/01/27 08:03:57;;;;;;;;;;;;;;;;;;5052661;28;19909;-50
2023/01/27 08:06:23;;;;;;;;;;;;;;;;;;5052416;28;19916;-49
2023/01/27 08:08:49;;;;;;;;;;;;;;;;;;5052407;28;19915;-49
2023/01/27 08:11:15;;;;;;;;;;;;;;;;;;5052767;28;20360;-50
2023/01/27 08:13:41;;;;;;;;;;;;;;;;;;5052582;28;19913;-49
2023/01/27 08:16:07;;;;;;;;;;;;;;;;;;5052338;28;20375;-50
2023/01/27 08:18:33;;;;;;;;;;;;;;;;;;5052309;28;20380;-49
2023/01/27 08:20:59;;;;;;;;;;;;;;;;;;5051147;28;19909;-50
2023/01/27 08:23:25;;;;;;;;;;;;;;;;;;5051136;28;19909;-50
2023/01/27 08:25:51;;;;;;;;;;;;;;;;;;5052446;28;19916;-51
2023/01/27 08:28:17;;;;;;;;;;;;;;;;;;5052443;28;20273;-50
2023/01/27 08:30:43;;;;;;;;;;;;;;;;;;5052267;28;19916;-50
2023/01/27 08:33:09;;;;;;;;;;;;;;;;;;5052076;28;19909;-53
2023/01/27 08:35:37;;;;;;;;;;;;;;;;;;5051965;28;19916;-52
2023/01/27 08:38:03;;;;;;;;;;;;;;;;;;5051767;28;20388;-51
2023/01/27 08:40:29;;;;;;;;;;;;;;;;;;5052294;28;19944;-51
2023/01/27 08:42:55;;;;;;;;;;;;;;;;;;5052097;28;19905;-50
2023/01/27 08:45:21;;;;;;;;;;;;;;;;;;5051567;28;19908;-53
2023/01/27 08:47:47;;;;;;;;;;;;;;;;;;5051925;28;19904;-53
2023/01/27 08:50:12;;;;;;;;;;;;;;;;;;5052001;28;19909;-52
2023/01/27 08:52:38;;;;;;;;;;;;;;;;;;5052012;28;20328;-50
2023/01/27 08:55:04;;;;;;;;;;;;;;;;;;5051869;28;19959;-50
2023/01/27 08:57:31;;;;;;;;;;;;;;;;;;5051872;28;19916;-50
2023/01/27 08:59:57;;;;;;;;;;;;;;;;;;5051999;28;19936;-53
2023/01/27 09:02:25;;;;;;;;;;;;;;;;;;5051823;28;19938;-50
2023/01/27 09:04:51;;;;;;;;;;;;;;;;;;5051795;28;19944;-50
2023/01/27 09:07:17;;;;;;;;;;;;;;;;;;5051733;28;19969;-52
2023/01/27 09:09:43;;;;;;;;;;;;;;;;;;5052070;28;19932;-51
2023/01/27 09:12:09;;;;;;;;;;;;;;;;;;5051839;28;19948;-50
2023/01/27 09:14:35;;;;;;;;;;;;;;;;;;5051633;28;20377;-50
2023/01/27 09:17:01;;;;;;;;;;;;;;;;;;5051774;28;19956;-51
2023/01/27 09:19:27;;;;;;;;;;;;;;;;;;5051767;28;20476;-50
2023/01/27 09:21:53;;;;;;;;;;;;;;;;;;5050524;28;19959;-50
2023/01/27 09:24:19;;;;;;;;;;;;;;;;;;5051710;28;19948;-50
2023/01/27 09:26:45;;;;;;;;;;;;;;;;;;5051665;28;20381;-50
2023/01/27 09:29:11;;;;;;;;;;;;;;;;;;5051745;28;19955;-52
2023/01/27 09:31:37;;;;;;;;;;;;;;;;;;5050378;28;19912;-52
2023/01/27 09:34:03;;;;;;;;;;;;;;;;;;5051721;28;19909;-53
2023/01/27 09:36:29;;;;;;;;;;;;;;;;;;5051513;28;19915;-50
2023/01/27 09:38:55;;;;;;;;;;;;;;;;;;5051341;28;20019;-50
2023/01/27 09:41:21;;;;;;;;;;;;;;;;;;5051659;28;19987;-50
2023/01/27 09:43:47;;;;;;;;;;;;;;;;;;5051547;28;20349;-50
2023/01/27 09:46:12;;;;;;;;;;;;;;;;;;5051379;28;20046;-50
2023/01/27 09:48:38;;;;;;;;;;;;;;;;;;5050133;28;19909;-53
2023/01/27 09:51:04;;;;;;;;;;;;;;;;;;5051498;28;20353;-50
2023/01/27 09:53:30;;;;;;;;;;;;;;;;;;5051535;28;19909;-53
2023/01/27 09:55:56;;;;;;;;;;;;;;;;;;5051398;28;20003;-51
2023/01/27 09:58:22;;;;;;;;;;;;;;;;;;5054339;28;19966;-54
2023/01/27 10:00:48;;;;;;;;;;;;;;;;;;5054997;28;19959;-54
2023/01/27 10:03:14;;;;;;;;;;;;;;;;;;5054965;28;19913;-53
2023/01/27 10:05:40;;;;;;;;;;;;;;;;;;5055020;28;20373;-51
2023/01/27 10:08:06;;;;;;;;;;;;;;;;;;5055030;28;19943;-50
2023/01/27 10:10:32;;;;;;;;;;;;;;;;;;5054937;28;19913;-50
2023/01/27 10:12:57;;;;;;;;;;;;;;;;;;5054784;28;19909;-50
2023/01/27 10:15:23;;;;;;;;;;;;;;;;;;5054651;28;19931;-50
2023/01/27 10:17:49;;;;;;;;;;;;;;;;;;5053341;28;19913;-50
2023/01/27 10:20:15;;;;;;;;;;;;;;;;;;5055297;28;20345;-50
2023/01/27 10:22:41;;;;;;;;;;;;;;;;;;5053459;28;19913;-50
2023/01/27 10:25:07;;;;;;;;;;;;;;;;;;5054514;28;19909;-50
2023/01/27 10:27:33;;;;;;;;;;;;;;;;;;5054499;28;19915;-50
2023/01/27 10:29:59;;;;;;;;;;;;;;;;;;5054466;28;19909;-51
2023/01/27 10:32:28;;;;;;;;;;;;;;;;;;5054488;28;19908;-52
2023/01/27 10:34:54;;;;;;;;;;;;;;;;;;5054340;28;20003;-50
2023/01/27 10:37:20;;;;;;;;;;;;;;;;;;5054275;28;19974;-50
2023/01/27 10:39:46;;;;;;;;;;;;;;;;;;5054421;28;19940;-50
2023/01/27 10:42:12;;;;;;;;;;;;;;;;;;5054268;28;19909;-50
2023/01/27 10:44:38;;;;;;;;;;;;;;;;;;5054029;28;19936;-50
2023/01/27 10:47:03;;;;;;;;;;;;;;;;;;5054208;28;19908;-50
2023/01/27 10:49:29;;;;;;;;;;;;;;;;;;5054197;28;19977;-51
2023/01/27 10:51:55;;;;;;;;;;;;;;;;;;5054140;28;20429;-51
2023/01/27 10:54:21;;;;;;;;;;;;;;;;;;5053993;28;19908;-51
2023/01/27 10:56:47;;;;;;;;;;;;;;;;;;5053958;28;19909;-51
2023/01/27 10:59:13;;;;;;;;;;;;;;;;;;5053844;28;20312;-52
2023/01/27 11:01:39;;;;;;;;;;;;;;;;;;5053876;28;19909;-53
2023/01/27 11:04:05;;;;;;;;;;;;;;;;;;5054067;28;19909;-53
2023/01/27 11:06:31;;;;;;;;;;;;;;;;;;5053825;28;19931;-54
2023/01/27 11:08:57;;;;;;;;;;;;;;;;;;5053784;28;19908;-50
2023/01/27 11:14:07;;;;;;;;;;;;;;;;;;5053657;28;19962;-51
2023/01/27 11:16:33;;;;;;;;;;;;;;;;;;5052933;28;19916;-51
2023/01/27 11:18:59;;;;;;;;;;;;;;;;;;5057739;28;19916;-52
2023/01/27 11:21:26;;;;;;;;;;;;;;;;;;5070403;28;19916;-55
2023/01/27 11:23:54;;;;;;;;;;;;;;;;;;5073447;28;19950;-51
2023/01/27 11:26:20;;;;;;;;;;;;;;;;;;5059455;28;20011;-52
2023/01/27 11:28:45;;;;;;;;;;;;;;;;;;5056469;28;19959;-53
2023/01/27 11:31:11;;;;;;;;;;;;;;;;;;5056783;28;19917;-50
2023/01/27 11:33:39;;;;;;;;;;;;;;;;;;5053023;28;20405;-50
2023/01/27 11:36:05;;;;;;;;;;;;;;;;;;5066910;28;19913;-51
2023/01/27 11:38:31;;;;;;;;;;;;;;;;;;5072653;28;19927;-52
2023/01/27 11:40:57;;;;;;;;;;;;;;;;;;5071191;28;19912;-51
2023/01/27 11:43:23;;;;;;;;;;;;;;;;;;5062342;28;19913;-50
2023/01/27 11:45:49;;;;;;;;;;;;;;;;;;5052881;28;20362;-51
2023/01/27 11:48:15;;;;;;;;;;;;;;;;;;5052774;28;19913;-53
2023/01/27 11:50:41;;;;;;;;;;;;;;;;;;5051949;28;20011;-51
2023/01/27 11:53:06;;;;;;;;;;;;;;;;;;5055979;28;20009;-50
2023/01/27 11:55:32;;;;;;;;;;;;;;;;;;5068014;28;19913;-51
2023/01/27 11:57:58;;;;;;;;;;;;;;;;;;5056511;28;19916;-51
2023/01/27 12:00:24;;;;;;;;;;;;;;;;;;5071991;28;19913;-54
2023/01/27 12:02:53;;;;;;;;;;;;;;;;;;5072454;28;20279;-53
2023/01/27 12:05:19;;;;;;;;;;;;;;;;;;5068634;28;19913;-50
2023/01/27 12:07:45;;;;;;;;;;;;;;;;;;5072227;28;19912;-50
2023/01/27 12:10:11;;;;;;;;;;;;;;;;;;5066176;28;20408;-50
2023/01/27 12:12:37;;;;;;;;;;;;;;;;;;5061098;28;19912;-50
2023/01/27 12:15:03;;;;;;;;;;;;;;;;;;5069684;28;19919;-51
2023/01/27 12:17:29;;;;;;;;;;;;;;;;;;5052364;28;19909;-52
2023/01/27 12:19:55;;;;;;;;;;;;;;;;;;5052901;28;19962;-52
2023/01/27 12:22:21;;;;;;;;;;;;;;;;;;5068953;28;19913;-52
2023/01/27 12:24:47;;;;;;;;;;;;;;;;;;5068079;28;19908;-52
2023/01/27 12:27:13;;;;;;;;;;;;;;;;;;5062350;28;19930;-51
2023/01/27 12:29:39;;;;;;;;;;;;;;;;;;5061202;28;19912;-54
2023/01/27 12:32:05;;;;;;;;;;;;;;;;;;5056441;28;20007;-53
2023/01/27 12:34:31;;;;;;;;;;;;;;;;;;5057982;28;19944;-53
2023/01/27 12:36:57;;;;;;;;;;;;;;;;;;5054764;28;19937;-52
2023/01/27 12:39:22;;;;;;;;;;;;;;;;;;5072116;28;19912;-51
2023/01/27 12:41:50;;;;;;;;;;;;;;;;;;5065284;28;20216;-50
2023/01/27 12:44:17;;;;;;;;;;;;;;;;;;5072250;28;19908;-53
2023/01/27 12:46:42;;;;;;;;;;;;;;;;;;5058750;28;19927;-50
2023/01/27 12:49:08;;;;;;;;;;;;;;;;;;5066745;28;19912;-51
2023/01/27 12:51:34;;;;;;;;;;;;;;;;;;5053755;28;19976;-50
2023/01/27 12:54:00;;;;;;;;;;;;;;;;;;5066636;28;19973;-51
2023/01/27 12:56:26;;;;;;;;;;;;;;;;;;5051649;28;19977;-50
2023/01/27 12:58:52;;;;;;;;;;;;;;;;;;5056470;28;19969;-51
2023/01/27 13:01:18;;;;;;;;;;;;;;;;;;5067139;28;19966;-52
2023/01/27 13:03:44;;;;;;;;;;;;;;;;;;5052975;28;19932;-52
2023/01/27 13:06:10;;;;;;;;;;;;;;;;;;5052007;28;19954;-50
2023/01/27 13:08:36;;;;;;;;;;;;;;;;;;5054703;28;19940;-53
2023/01/27 13:11:02;;;;;;;;;;;;;;;;;;5071797;28;19908;-53
2023/01/27 13:13:28;;;;;;;;;;;;;;;;;;5058664;28;19951;-52
2023/01/27 13:15:54;;;;;;;;;;;;;;;;;;5050425;28;19998;-50
2023/01/27 13:18:23;;;;;;;;;;;;;;;;;;5051620;28;20010;-50
2023/01/27 13:20:49;;;;;;;;;;;;;;;;;;5045361;28;19913;-50
2023/01/27 13:23:15;;;;;;;;;;;;;;;;;;5051692;28;19913;-51
2023/01/27 13:25:41;;;;;;;;;;;;;;;;;;5067676;28;19924;-52
2023/01/27 13:28:06;;;;;;;;;;;;;;;;;;5063548;28;19913;-51
2023/01/27 13:30:34;;;;;;;;;;;;;;;;;;5060616;28;20250;-50
2023/01/27 13:33:00;;;;;;;;;;;;;;;;;;5074294;28;19908;-53
2023/01/27 13:35:26;;;;;;;;;;;;;;;;;;5075426;28;19908;-51
2023/01/27 13:37:51;;;;;;;;;;;;;;;;;;5061391;28;19924;-52
2023/01/27 13:40:17;;;;;;;;;;;;;;;;;;5055220;28;19917;-51
2023/01/27 13:42:43;;;;;;;;;;;;;;;;;;5055537;28;19962;-51
2023/01/27 13:45:09;;;;;;;;;;;;;;;;;;5055321;28;19999;-50
2023/01/27 13:47:35;;;;;;;;;;;;;;;;;;5054042;28;19916;-50
2023/01/27 13:50:01;;;;;;;;;;;;;;;;;;5070744;28;20288;-50
2023/01/27 13:52:27;;;;;;;;;;;;;;;;;;5073312;28;19920;-50
2023/01/27 13:54:53;;;;;;;;;;;;;;;;;;5075018;28;19920;-50
2023/01/27 13:57:19;;;;;;;;;;;;;;;;;;5074771;28;19905;-53
2023/01/27 13:59:45;;;;;;;;;;;;;;;;;;5061724;28;20008;-50
2023/01/27 14:02:11;;;;;;;;;;;;;;;;;;5053949;28;20011;-53
2023/01/27 14:04:37;;;;;;;;;;;;;;;;;;5054827;28;20087;-50
2023/01/27 14:07:03;;;;;;;;;;;;;;;;;;5057079;28;19923;-51
2023/01/27 14:09:29;;;;;;;;;;;;;;;;;;5063777;28;19920;-51
2023/01/27 14:11:55;;;;;;;;;;;;;;;;;;5054916;28;19912;-51
2023/01/27 14:14:21;;;;;;;;;;;;;;;;;;5054749;28;19905;-52
2023/01/27 14:16:47;;;;;;;;;;;;;;;;;;5055072;28;20339;-53
2023/01/27 14:19:13;;;;;;;;;;;;;;;;;;5061518;28;19960;-53
2023/01/27 14:21:39;;;;;;;;;;;;;;;;;;5071259;28;19917;-55
2023/01/27 14:24:04;;;;;;;;;;;;;;;;;;5054653;28;20278;-52
2023/01/27 14:26:30;;;;;;;;;;;;;;;;;;5054427;28;20377;-52
2023/01/27 14:28:56;;;;;;;;;;;;;;;;;;5060460;28;19963;-54
2023/01/27 14:31:22;;;;;;;;;;;;;;;;;;5071684;28;20277;-52
2023/01/27 14:33:48;;;;;;;;;;;;;;;;;;5061730;28;19912;-54
2023/01/27 14:36:14;;;;;;;;;;;;;;;;;;5056529;28;19913;-52
2023/01/27 14:38:40;;;;;;;;;;;;;;;;;;5061939;28;19921;-52
2023/01/27 14:41:06;;;;;;;;;;;;;;;;;;5053796;28;19913;-52
2023/01/27 14:43:35;;;;;;;;;;;;;;;;;;5053581;28;19974;-54
2023/01/27 14:46:01;;;;;;;;;;;;;;;;;;5055742;28;20054;-51
2023/01/27 14:48:27;;;;;;;;;;;;;;;;;;5060408;28;20050;-51
2023/01/27 14:50:53;;;;;;;;;;;;;;;;;;5073152;28;20353;-54
2023/01/27 14:53:19;;;;;;;;;;;;;;;;;;5057831;28;19916;-52
2023/01/27 14:55:45;;;;;;;;;;;;;;;;;;5053999;28;19913;-53
2023/01/27 14:58:11;;;;;;;;;;;;;;;;;;5053953;28;19943;-52
2023/01/27 15:00:37;;;;;;;;;;;;;;;;;;5053949;28;19909;-53
2023/01/27 15:03:03;;;;;;;;;;;;;;;;;;5053888;28;19909;-51
2023/01/27 15:05:29;;;;;;;;;;;;;;;;;;5069688;28;19908;-53
2023/01/27 15:07:55;;;;;;;;;;;;;;;;;;5072719;28;19916;-54
2023/01/27 15:10:21;;;;;;;;;;;;;;;;;;5069520;28;19919;-53
2023/01/27 15:12:47;;;;;;;;;;;;;;;;;;5071271;28;19912;-53
2023/01/27 15:15:13;;;;;;;;;;;;;;;;;;5072101;28;19970;-52
2023/01/27 15:17:38;;;;;;;;;;;;;;;;;;5060869;28;20596;-51
2023/01/27 15:20:04;;;;;;;;;;;;;;;;;;5051451;28;20293;-52
2023/01/27 15:22:30;;;;;;;;;;;;;;;;;;5051465;28;19909;-51
2023/01/27 15:24:56;;;;;;;;;;;;;;;;;;5052183;28;19909;-52
2023/01/27 15:27:22;;;;;;;;;;;;;;;;;;5053478;28;19909;-54
2023/01/27 15:29:48;;;;;;;;;;;;;;;;;;5053413;28;19916;-55
2023/01/27 15:32:14;;;;;;;;;;;;;;;;;;5053390;28;20007;-54
2023/01/27 15:34:40;;;;;;;;;;;;;;;;;;5053169;28;19912;-52
2023/01/27 15:37:06;;;;;;;;;;;;;;;;;;5053165;28;19920;-52
2023/01/27 15:39:32;;;;;;;;;;;;;;;;;;5053336;28;19913;-53
2023/01/27 15:41:58;;;;;;;;;;;;;;;;;;5051977;28;20300;-51
2023/01/27 15:44:24;;;;;;;;;;;;;;;;;;5053031;28;20446;-54
2023/01/27 15:46:50;;;;;;;;;;;;;;;;;;5053065;28;20007;-51
2023/01/27 15:49:16;;;;;;;;;;;;;;;;;;5053089;28;19909;-54
2023/01/27 15:51:42;;;;;;;;;;;;;;;;;;5053004;28;19919;-52
2023/01/27 15:54:08;;;;;;;;;;;;;;;;;;5052244;28;19916;-52
2023/01/27 15:56:34;;;;;;;;;;;;;;;;;;5051286;28;20001;-54
2023/01/27 15:59:00;;;;;;;;;;;;;;;;;;5052722;28;19912;-53
2023/01/27 16:01:25;;;;;;;;;;;;;;;;;;5051514;28;20284;-51
2023/01/27 16:03:51;;;;;;;;;;;;;;;;;;5052727;28;20003;-54
2023/01/27 16:06:18;;;;;;;;;;;;;;;;;;5052825;28;20015;-51
2023/01/27 16:08:44;;;;;;;;;;;;;;;;;;5052792;28;19909;-51
2023/01/27 16:11:11;;;;;;;;;;;;;;;;;;5052722;28;19931;-51
2023/01/27 16:13:37;;;;;;;;;;;;;;;;;;5052569;28;20011;-51
2023/01/27 16:16:03;;;;;;;;;;;;;;;;;;5051155;28;20345;-54
2023/01/27 16:18:29;;;;;;;;;;;;;;;;;;5052151;28;20301;-52
2023/01/27 16:20:55;;;;;;;;;;;;;;;;;;5052517;28;19920;-53
2023/01/27 16:23:21;;;;;;;;;;;;;;;;;;5052536;28;19966;-55
2023/01/27 16:25:47;;;;;;;;;;;;;;;;;;5051928;28;19909;-54
2023/01/27 16:28:13;;;;;;;;;;;;;;;;;;5052209;28;19916;-56
2023/01/27 16:30:41;;;;;;;;;;;;;;;;;;5052345;28;19997;-54
2023/01/27 16:33:07;;;;;;;;;;;;;;;;;;5052200;28;19915;-51
2023/01/27 16:35:33;;;;;;;;;;;;;;;;;;5052153;28;19908;-51
2023/01/27 16:37:59;;;;;;;;;;;;;;;;;;5051993;28;19917;-52
2023/01/27 16:40:25;;;;;;;;;;;;;;;;;;5052157;28;19919;-51
2023/01/27 16:42:51;;;;;;;;;;;;;;;;;;5050786;28;19909;-52
2023/01/27 16:45:17;;;;;;;;;;;;;;;;;;5051943;28;20023;-51
2023/01/27 16:47:42;;;;;;;;;;;;;;;;;;5052022;28;19913;-52
2023/01/27 16:50:08;;;;;;;;;;;;;;;;;;5052027;28;20011;-51
2023/01/27 16:52:34;;;;;;;;;;;;;;;;;;5051996;28;20003;-54
2023/01/27 16:55:01;;;;;;;;;;;;;;;;;;5052007;28;20379;-54
2023/01/27 16:57:27;;;;;;;;;;;;;;;;;;5050539;28;20011;-51
2023/01/27 16:59:53;;;;;;;;;;;;;;;;;;5050695;28;19928;-51
2023/01/27 17:02:19;;;;;;;;;;;;;;;;;;5051814;28;19915;-51
2023/01/27 17:04:45;;;;;;;;;;;;;;;;;;5051744;28;19913;-51
2023/01/27 17:07:14;;;;;;;;;;;;;;;;;;5054930;28;19909;-55
2023/01/27 17:09:40;;;;;;;;;;;;;;;;;;5056181;28;19919;-51
2023/01/27 17:12:06;;;;;;;;;;;;;;;;;;5056052;28;20297;-53
2023/01/27 17:14:32;;;;;;;;;;;;;;;;;;5055750;28;19909;-51